Conley, Georgia
Current Conditions -  °F | °C
As of 9:52 PM on Tuesday 25 Nov 2014 (Local Time) from KATL Reporting Station
Overcast Overcast  
Wind Chill: 53°   Ceiling: 11000
Heat Index: 53°   Visibility: 10mi
Dew Point: 32°   Wind: 3mph
Humidity: 45%   Direction: 260°W
Pressure: 30.05"   Gusts: NA
Location:  33.64°N, 84.32°W
Report Text: KATL 260252Z 26003KT 10SM SCT095 BKN110 OVC150 12/00 A3005 RMK AO2 SLP176 VIRGA OHD-ALQDS T01170000 55005
Loading
Personal Weather Stations






























Interactive Weather Map New forecast layout! Learn more

10-Day Weather Forecast

Advertisements
Track Severe Weather on mobile